sensor_id;sensor_type;location;lat;lon;timestamp;pressure;altitude;pressure_sealevel;temperature;humidity
35806;BME280;21925;44.608;11.580;2023-03-04T00:00:05;101892.81;;;8.02;100.00
35806;BME280;21925;44.608;11.580;2023-03-04T00:02:35;101847.59;;;7.83;100.00
35806;BME280;21925;44.608;11.580;2023-03-04T00:05:01;101911.25;;;8.24;100.00
35806;BME280;21925;44.608;11.580;2023-03-04T00:07:28;101884.44;;;8.26;100.00
35806;BME280;21925;44.608;11.580;2023-03-04T00:09:54;101900.50;;;8.68;100.00
35806;BME280;21925;44.608;11.580;2023-03-04T00:12:19;101903.41;;;8.84;100.00
35806;BME280;21925;44.608;11.580;2023-03-04T00:14:45;101893.81;;;9.09;100.00
35806;BME280;21925;44.608;11.580;2023-03-04T00:17:11;101877.84;;;8.54;100.00
35806;BME280;21925;44.608;11.580;2023-03-04T00:19:36;101890.75;;;8.40;100.00
35806;BME280;21925;44.608;11.580;2023-03-04T00:22:03;101890.25;;;8.86;100.00
35806;BME280;21925;44.608;11.580;2023-03-04T00:24:29;101908.97;;;9.28;100.00
35806;BME280;21925;44.608;11.580;2023-03-04T00:26:55;101828.47;;;8.85;97.23
35806;BME280;21925;44.608;11.580;2023-03-04T00:29:20;101884.78;;;8.86;93.31
35806;BME280;21925;44.608;11.580;2023-03-04T00:31:46;101850.84;;;8.12;99.25
35806;BME280;21925;44.608;11.580;2023-03-04T00:34:12;101862.16;;;7.92;100.00
35806;BME280;21925;44.608;11.580;2023-03-04T00:36:38;101864.00;;;8.37;100.00
35806;BME280;21925;44.608;11.580;2023-03-04T00:39:04;101910.69;;;8.89;99.40
35806;BME280;21925;44.608;11.580;2023-03-04T00:41:30;101880.84;;;8.66;98.37
35806;BME280;21925;44.608;11.580;2023-03-04T00:43:55;101903.34;;;9.11;99.76
35806;BME280;21925;44.608;11.580;2023-03-04T00:46:21;101910.31;;;8.82;100.00
35806;BME280;21925;44.608;11.580;2023-03-04T00:48:47;101909.34;;;8.38;100.00
35806;BME280;21925;44.608;11.580;2023-03-04T00:51:12;101853.31;;;7.68;100.00
35806;BME280;21925;44.608;11.580;2023-03-04T00:53:38;101881.19;;;7.97;100.00
35806;BME280;21925;44.608;11.580;2023-03-04T00:56:04;101879.19;;;8.16;100.00
35806;BME280;21925;44.608;11.580;2023-03-04T00:58:30;101875.53;;;8.34;100.00
35806;BME280;21925;44.608;11.580;2023-03-04T01:00:56;101834.88;;;8.32;98.67
35806;BME280;21925;44.608;11.580;2023-03-04T01:03:21;101877.34;;;8.52;99.68
35806;BME280;21925;44.608;11.580;2023-03-04T01:05:47;101863.56;;;8.57;96.88
35806;BME280;21925;44.608;11.580;2023-03-04T01:08:13;101850.63;;;8.49;96.11
35806;BME280;21925;44.608;11.580;2023-03-04T01:10:39;101887.31;;;8.83;93.57
35806;BME280;21925;44.608;11.580;2023-03-04T01:13:04;101832.31;;;8.36;92.75
35806;BME280;21925;44.608;11.580;2023-03-04T01:15:30;101887.28;;;8.48;93.89
35806;BME280;21925;44.608;11.580;2023-03-04T01:17:56;101838.59;;;8.09;98.41
35806;BME280;21925;44.608;11.580;2023-03-04T01:20:21;101886.25;;;8.44;96.99
35806;BME280;21925;44.608;11.580;2023-03-04T01:22:47;101841.38;;;8.23;98.66
35806;BME280;21925;44.608;11.580;2023-03-04T01:25:13;101847.81;;;8.27;100.00
35806;BME280;21925;44.608;11.580;2023-03-04T01:27:39;101865.44;;;7.62;100.00
35806;BME280;21925;44.608;11.580;2023-03-04T01:30:05;101847.53;;;7.43;100.00
35806;BME280;21925;44.608;11.580;2023-03-04T01:32:31;101838.72;;;7.91;100.00
35806;BME280;21925;44.608;11.580;2023-03-04T01:34:56;101836.31;;;8.16;100.00
35806;BME280;21925;44.608;11.580;2023-03-04T01:37:22;101876.44;;;8.16;100.00
35806;BME280;21925;44.608;11.580;2023-03-04T01:39:47;101870.59;;;8.22;100.00
35806;BME280;21925;44.608;11.580;2023-03-04T01:42:21;101865.59;;;7.71;100.00
35806;BME280;21925;44.608;11.580;2023-03-04T01:44:48;101843.81;;;6.52;100.00
35806;BME280;21925;44.608;11.580;2023-03-04T01:47:15;101846.38;;;6.99;100.00
35806;BME280;21925;44.608;11.580;2023-03-04T01:49:41;101868.56;;;7.42;100.00
35806;BME280;21925;44.608;11.580;2023-03-04T01:52:12;101796.72;;;7.15;100.00
35806;BME280;21925;44.608;11.580;2023-03-04T01:54:39;101862.50;;;7.59;100.00
35806;BME280;21925;44.608;11.580;2023-03-04T01:57:19;101863.31;;;7.27;100.00
35806;BME280;21925;44.608;11.580;2023-03-04T01:59:46;101874.69;;;7.16;100.00
35806;BME280;21925;44.608;11.580;2023-03-04T02:02:12;101849.19;;;6.94;100.00
35806;BME280;21925;44.608;11.580;2023-03-04T02:04:40;101857.97;;;7.22;100.00
35806;BME280;21925;44.608;11.580;2023-03-04T02:07:07;101837.72;;;7.10;100.00
35806;BME280;21925;44.608;11.580;2023-03-04T02:09:33;101865.34;;;7.04;100.00
35806;BME280;21925;44.608;11.580;2023-03-04T02:12:00;101845.31;;;6.95;100.00
35806;BME280;21925;44.608;11.580;2023-03-04T02:14:26;101841.94;;;5.82;100.00
35806;BME280;21925;44.608;11.580;2023-03-04T02:16:52;101866.16;;;5.84;100.00
35806;BME280;21925;44.608;11.580;2023-03-04T02:22:14;101856.41;;;6.85;100.00
35806;BME280;21925;44.608;11.580;2023-03-04T02:24:44;101836.72;;;6.51;100.00
35806;BME280;21925;44.608;11.580;2023-03-04T02:27:12;101856.84;;;5.61;100.00
35806;BME280;21925;44.608;11.580;2023-03-04T02:29:38;101889.34;;;5.81;100.00
35806;BME280;21925;44.608;11.580;2023-03-04T02:32:04;101876.69;;;5.90;100.00
35806;BME280;21925;44.608;11.580;2023-03-04T02:34:34;101858.81;;;5.84;100.00
35806;BME280;21925;44.608;11.580;2023-03-04T02:37:02;101873.44;;;6.12;100.00
35806;BME280;21925;44.608;11.580;2023-03-04T02:39:37;101845.34;;;6.39;100.00
35806;BME280;21925;44.608;11.580;2023-03-04T02:42:04;101881.88;;;6.75;100.00
35806;BME280;21925;44.608;11.580;2023-03-04T02:44:35;101878.25;;;7.16;100.00
35806;BME280;21925;44.608;11.580;2023-03-04T02:47:03;101850.13;;;7.34;100.00
35806;BME280;21925;44.608;11.580;2023-03-04T02:49:30;101874.84;;;7.56;100.00
35806;BME280;21925;44.608;11.580;2023-03-04T02:52:05;101837.03;;;7.18;100.00
35806;BME280;21925;44.608;11.580;2023-03-04T02:54:31;101862.34;;;7.05;100.00
35806;BME280;21925;44.608;11.580;2023-03-04T02:56:59;101850.56;;;7.10;100.00
35806;BME280;21925;44.608;11.580;2023-03-04T02:59:26;101841.34;;;7.06;100.00
35806;BME280;21925;44.608;11.580;2023-03-04T03:01:52;101854.56;;;7.76;100.00
35806;BME280;21925;44.608;11.580;2023-03-04T03:04:20;101843.25;;;8.09;100.00
35806;BME280;21925;44.608;11.580;2023-03-04T03:06:47;101784.59;;;7.66;100.00
35806;BME280;21925;44.608;11.580;2023-03-04T03:09:13;101852.66;;;8.03;100.00
35806;BME280;21925;44.608;11.580;2023-03-04T03:11:39;101820.78;;;7.72;100.00
35806;BME280;21925;44.608;11.580;2023-03-04T03:14:05;101833.22;;;7.64;100.00
35806;BME280;21925;44.608;11.580;2023-03-04T03:16:32;101863.13;;;7.69;100.00
35806;BME280;21925;44.608;11.580;2023-03-04T03:18:57;101824.69;;;7.52;100.00
35806;BME280;21925;44.608;11.580;2023-03-04T03:21:23;101819.78;;;7.68;100.00
35806;BME280;21925;44.608;11.580;2023-03-04T03:23:49;101839.59;;;8.54;100.00
35806;BME280;21925;44.608;11.580;2023-03-04T03:26:15;101835.84;;;8.85;100.00
35806;BME280;21925;44.608;11.580;2023-03-04T03:28:41;101834.25;;;9.06;100.00
35806;BME280;21925;44.608;11.580;2023-03-04T03:31:07;101828.66;;;8.89;100.00
35806;BME280;21925;44.608;11.580;2023-03-04T03:33:33;101840.66;;;8.79;100.00
35806;BME280;21925;44.608;11.580;2023-03-04T03:35:59;101823.47;;;8.52;100.00
35806;BME280;21925;44.608;11.580;2023-03-04T03:38:25;101789.56;;;7.91;100.00
35806;BME280;21925;44.608;11.580;2023-03-04T03:40:51;101822.72;;;8.25;100.00
35806;BME280;21925;44.608;11.580;2023-03-04T03:43:16;101800.25;;;8.28;100.00
35806;BME280;21925;44.608;11.580;2023-03-04T03:45:42;101832.91;;;8.81;100.00
35806;BME280;21925;44.608;11.580;2023-03-04T03:48:08;101845.44;;;9.18;100.00
35806;BME280;21925;44.608;11.580;2023-03-04T03:50:33;101785.81;;;8.63;100.00
35806;BME280;21925;44.608;11.580;2023-03-04T03:52:59;101797.72;;;8.67;100.00
35806;BME280;21925;44.608;11.580;2023-03-04T03:55:25;101828.69;;;8.75;100.00
35806;BME280;21925;44.608;11.580;2023-03-04T03:57:51;101801.78;;;8.20;100.00
35806;BME280;21925;44.608;11.580;2023-03-04T04:00:17;101825.06;;;8.18;100.00
35806;BME280;21925;44.608;11.580;2023-03-04T04:02:43;101858.53;;;8.37;100.00
35806;BME280;21925;44.608;11.580;2023-03-04T04:05:09;101849.63;;;8.45;100.00
35806;BME280;21925;44.608;11.580;2023-03-04T04:07:36;101825.38;;;8.65;100.00
35806;BME280;21925;44.608;11.580;2023-03-04T04:10:03;101822.84;;;8.90;100.00
35806;BME280;21925;44.608;11.580;2023-03-04T04:12:30;101796.44;;;8.86;100.00
35806;BME280;21925;44.608;11.580;2023-03-04T04:14:55;101851.81;;;8.56;100.00
35806;BME280;21925;44.608;11.580;2023-03-04T04:17:21;101846.56;;;7.79;100.00
35806;BME280;21925;44.608;11.580;2023-03-04T04:19:47;101809.53;;;7.46;100.00
35806;BME280;21925;44.608;11.580;2023-03-04T04:22:15;101832.63;;;7.94;100.00
35806;BME280;21925;44.608;11.580;2023-03-04T04:24:41;101808.38;;;8.06;100.00
35806;BME280;21925;44.608;11.580;2023-03-04T04:27:07;101851.81;;;8.56;100.00
35806;BME280;21925;44.608;11.580;2023-03-04T04:29:33;101839.88;;;8.52;100.00
35806;BME280;21925;44.608;11.580;2023-03-04T04:31:58;101845.78;;;8.46;100.00
35806;BME280;21925;44.608;11.580;2023-03-04T04:34:24;101822.13;;;8.28;100.00
35806;BME280;21925;44.608;11.580;2023-03-04T04:36:50;101848.13;;;8.25;100.00
35806;BME280;21925;44.608;11.580;2023-03-04T04:39:15;101859.31;;;8.51;100.00
35806;BME280;21925;44.608;11.580;2023-03-04T04:41:42;101836.69;;;8.37;100.00
35806;BME280;21925;44.608;11.580;2023-03-04T04:44:08;101774.88;;;8.00;100.00
35806;BME280;21925;44.608;11.580;2023-03-04T04:46:35;101853.03;;;8.64;100.00
35806;BME280;21925;44.608;11.580;2023-03-04T04:49:02;101849.13;;;8.43;100.00
35806;BME280;21925;44.608;11.580;2023-03-04T04:51:28;101808.97;;;8.16;100.00
35806;BME280;21925;44.608;11.580;2023-03-04T04:53:54;101853.44;;;8.57;100.00
35806;BME280;21925;44.608;11.580;2023-03-04T04:56:22;101835.44;;;8.43;100.00
35806;BME280;21925;44.608;11.580;2023-03-04T04:58:52;101837.91;;;8.31;100.00
35806;BME280;21925;44.608;11.580;2023-03-04T05:01:18;101847.78;;;8.13;100.00
35806;BME280;21925;44.608;11.580;2023-03-04T05:03:44;101857.31;;;8.16;100.00
35806;BME280;21925;44.608;11.580;2023-03-04T05:06:11;101844.78;;;8.01;100.00
35806;BME280;21925;44.608;11.580;2023-03-04T05:08:37;101824.91;;;7.69;100.00
35806;BME280;21925;44.608;11.580;2023-03-04T05:11:06;101815.59;;;7.57;100.00
35806;BME280;21925;44.608;11.580;2023-03-04T05:13:33;101851.94;;;7.97;100.00
35806;BME280;21925;44.608;11.580;2023-03-04T05:15:58;101830.19;;;7.79;100.00
35806;BME280;21925;44.608;11.580;2023-03-04T05:18:25;101835.66;;;7.79;100.00
35806;BME280;21925;44.608;11.580;2023-03-04T05:20:59;101846.19;;;7.99;100.00
35806;BME280;21925;44.608;11.580;2023-03-04T05:23:27;101850.63;;;7.82;100.00
35806;BME280;21925;44.608;11.580;2023-03-04T05:25:54;101858.59;;;7.78;100.00
35806;BME280;21925;44.608;11.580;2023-03-04T05:28:19;101845.66;;;7.70;100.00
35806;BME280;21925;44.608;11.580;2023-03-04T05:30:45;101807.09;;;7.31;100.00
35806;BME280;21925;44.608;11.580;2023-03-04T05:33:13;101853.97;;;7.33;100.00
35806;BME280;21925;44.608;11.580;2023-03-04T05:35:40;101866.66;;;7.24;100.00
35806;BME280;21925;44.608;11.580;2023-03-04T05:38:09;101851.66;;;6.72;100.00
35806;BME280;21925;44.608;11.580;2023-03-04T05:40:35;101826.78;;;6.60;100.00
35806;BME280;21925;44.608;11.580;2023-03-04T05:43:01;101850.47;;;6.41;100.00
35806;BME280;21925;44.608;11.580;2023-03-04T05:45:27;101865.72;;;6.42;100.00
35806;BME280;21925;44.608;11.580;2023-03-04T05:47:54;101844.25;;;6.17;100.00
35806;BME280;21925;44.608;11.580;2023-03-04T05:50:21;101825.56;;;5.87;100.00
35806;BME280;21925;44.608;11.580;2023-03-04T05:52:48;101868.13;;;6.02;100.00
35806;BME280;21925;44.608;11.580;2023-03-04T05:55:15;101882.06;;;6.19;100.00
35806;BME280;21925;44.608;11.580;2023-03-04T05:57:42;101882.38;;;6.40;100.00
35806;BME280;21925;44.608;11.580;2023-03-04T06:00:08;101833.03;;;6.24;100.00
35806;BME280;21925;44.608;11.580;2023-03-04T06:02:41;101860.59;;;6.17;100.00
35806;BME280;21925;44.608;11.580;2023-03-04T06:05:08;101883.88;;;6.28;100.00
35806;BME280;21925;44.608;11.580;2023-03-04T06:07:34;101851.44;;;6.08;100.00
35806;BME280;21925;44.608;11.580;2023-03-04T06:09:59;101862.78;;;6.15;100.00
35806;BME280;21925;44.608;11.580;2023-03-04T06:12:25;101841.69;;;5.84;100.00
35806;BME280;21925;44.608;11.580;2023-03-04T06:14:53;101865.47;;;6.20;100.00
35806;BME280;21925;44.608;11.580;2023-03-04T06:17:19;101887.94;;;6.31;100.00
35806;BME280;21925;44.608;11.580;2023-03-04T06:19:44;101814.72;;;6.06;100.00
35806;BME280;21925;44.608;11.580;2023-03-04T06:22:10;101853.81;;;6.38;100.00
35806;BME280;21925;44.608;11.580;2023-03-04T06:24:36;101869.34;;;6.56;100.00
35806;BME280;21925;44.608;11.580;2023-03-04T06:27:02;101840.19;;;6.38;100.00
35806;BME280;21925;44.608;11.580;2023-03-04T06:29:28;101873.59;;;6.43;100.00
35806;BME280;21925;44.608;11.580;2023-03-04T06:31:53;101896.09;;;6.72;100.00
35806;BME280;21925;44.608;11.580;2023-03-04T06:34:19;101862.69;;;6.43;100.00
35806;BME280;21925;44.608;11.580;2023-03-04T06:36:45;101877.19;;;6.39;100.00
35806;BME280;21925;44.608;11.580;2023-03-04T06:39:11;101913.34;;;6.44;100.00
35806;BME280;21925;44.608;11.580;2023-03-04T06:41:37;101888.63;;;6.41;100.00
35806;BME280;21925;44.608;11.580;2023-03-04T06:44:03;101911.97;;;6.47;100.00
35806;BME280;21925;44.608;11.580;2023-03-04T06:46:29;101914.34;;;6.30;100.00
35806;BME280;21925;44.608;11.580;2023-03-04T06:48:57;101899.91;;;6.53;100.00
35806;BME280;21925;44.608;11.580;2023-03-04T06:51:23;101917.25;;;6.38;100.00
35806;BME280;21925;44.608;11.580;2023-03-04T06:53:48;101926.75;;;6.41;100.00
35806;BME280;21925;44.608;11.580;2023-03-04T06:56:14;101890.25;;;6.42;100.00
35806;BME280;21925;44.608;11.580;2023-03-04T06:58:45;101904.41;;;6.62;100.00
35806;BME280;21925;44.608;11.580;2023-03-04T07:01:20;101891.75;;;6.53;100.00
35806;BME280;21925;44.608;11.580;2023-03-04T07:03:46;101902.22;;;6.83;100.00
35806;BME280;21925;44.608;11.580;2023-03-04T07:06:15;101912.38;;;6.96;100.00
35806;BME280;21925;44.608;11.580;2023-03-04T07:08:41;101896.47;;;6.66;100.00
35806;BME280;21925;44.608;11.580;2023-03-04T07:11:07;101903.75;;;6.89;100.00
35806;BME280;21925;44.608;11.580;2023-03-04T07:13:34;101929.25;;;7.16;100.00
35806;BME280;21925;44.608;11.580;2023-03-04T07:16:07;101920.78;;;6.81;100.00
35806;BME280;21925;44.608;11.580;2023-03-04T07:18:34;101918.59;;;6.59;100.00
35806;BME280;21925;44.608;11.580;2023-03-04T07:20:59;101927.19;;;6.48;100.00
35806;BME280;21925;44.608;11.580;2023-03-04T07:23:25;101913.44;;;6.39;100.00
35806;BME280;21925;44.608;11.580;2023-03-04T07:25:51;101921.34;;;6.59;100.00
35806;BME280;21925;44.608;11.580;2023-03-04T07:28:17;101925.44;;;6.80;100.00
35806;BME280;21925;44.608;11.580;2023-03-04T07:30:43;101929.13;;;6.89;100.00
35806;BME280;21925;44.608;11.580;2023-03-04T07:33:09;101906.78;;;6.69;100.00
35806;BME280;21925;44.608;11.580;2023-03-04T07:35:35;101944.78;;;6.79;100.00
35806;BME280;21925;44.608;11.580;2023-03-04T07:38:00;101914.88;;;6.74;100.00
35806;BME280;21925;44.608;11.580;2023-03-04T07:40:26;101902.56;;;6.58;100.00
35806;BME280;21925;44.608;11.580;2023-03-04T07:42:53;101887.78;;;6.82;100.00
35806;BME280;21925;44.608;11.580;2023-03-04T07:45:20;101948.72;;;7.10;100.00
35806;BME280;21925;44.608;11.580;2023-03-04T07:47:46;101898.16;;;6.99;100.00
35806;BME280;21925;44.608;11.580;2023-03-04T07:50:12;101953.41;;;7.41;100.00
35806;BME280;21925;44.608;11.580;2023-03-04T07:52:39;101945.81;;;7.56;100.00
35806;BME280;21925;44.608;11.580;2023-03-04T07:55:05;101923.19;;;7.69;100.00
35806;BME280;21925;44.608;11.580;2023-03-04T07:57:31;101915.84;;;7.51;100.00
35806;BME280;21925;44.608;11.580;2023-03-04T07:59:56;101925.09;;;8.00;100.00
35806;BME280;21925;44.608;11.580;2023-03-04T08:02:22;101942.69;;;8.08;100.00
35806;BME280;21925;44.608;11.580;2023-03-04T08:04:47;101908.88;;;7.90;100.00
35806;BME280;21925;44.608;11.580;2023-03-04T08:07:13;101933.78;;;8.02;100.00
35806;BME280;21925;44.608;11.580;2023-03-04T08:09:39;101931.28;;;8.06;100.00
35806;BME280;21925;44.608;11.580;2023-03-04T08:12:04;101926.72;;;8.01;100.00
35806;BME280;21925;44.608;11.580;2023-03-04T08:14:31;101927.84;;;8.68;100.00
35806;BME280;21925;44.608;11.580;2023-03-04T08:16:56;101912.56;;;8.67;100.00
35806;BME280;21925;44.608;11.580;2023-03-04T08:19:22;101933.91;;;8.65;100.00
35806;BME280;21925;44.608;11.580;2023-03-04T08:21:48;101933.31;;;8.81;100.00
35806;BME280;21925;44.608;11.580;2023-03-04T08:24:13;101905.63;;;8.82;100.00
35806;BME280;21925;44.608;11.580;2023-03-04T08:26:45;101934.28;;;8.85;100.00
35806;BME280;21925;44.608;11.580;2023-03-04T08:29:14;101930.75;;;9.20;100.00
35806;BME280;21925;44.608;11.580;2023-03-04T08:31:41;101922.84;;;9.32;100.00
35806;BME280;21925;44.608;11.580;2023-03-04T08:34:09;101893.09;;;9.39;100.00
35806;BME280;21925;44.608;11.580;2023-03-04T08:36:35;101920.34;;;9.96;100.00
35806;BME280;21925;44.608;11.580;2023-03-04T08:39:02;101916.19;;;9.76;100.00
35806;BME280;21925;44.608;11.580;2023-03-04T08:41:28;101918.38;;;9.88;100.00
35806;BME280;21925;44.608;11.580;2023-03-04T08:43:54;101915.84;;;10.30;100.00
35806;BME280;21925;44.608;11.580;2023-03-04T08:46:19;101923.50;;;10.41;100.00
35806;BME280;21925;44.608;11.580;2023-03-04T08:48:51;101925.22;;;10.29;100.00
35806;BME280;21925;44.608;11.580;2023-03-04T08:51:17;101862.00;;;10.34;100.00
35806;BME280;21925;44.608;11.580;2023-03-04T08:53:43;101885.81;;;10.72;100.00
35806;BME280;21925;44.608;11.580;2023-03-04T08:56:09;101876.78;;;10.80;100.00
35806;BME280;21925;44.608;11.580;2023-03-04T08:58:35;101896.00;;;10.80;100.00
35806;BME280;21925;44.608;11.580;2023-03-04T09:01:02;101901.47;;;10.89;100.00
35806;BME280;21925;44.608;11.580;2023-03-04T09:03:28;101917.00;;;11.27;100.00
35806;BME280;21925;44.608;11.580;2023-03-04T09:05:54;101901.47;;;11.65;100.00
35806;BME280;21925;44.608;11.580;2023-03-04T09:08:20;101881.16;;;12.11;100.00
35806;BME280;21925;44.608;11.580;2023-03-04T09:10:46;101911.59;;;11.98;100.00
35806;BME280;21925;44.608;11.580;2023-03-04T09:13:12;101905.56;;;12.13;100.00
35806;BME280;21925;44.608;11.580;2023-03-04T09:15:46;101880.47;;;12.14;100.00
35806;BME280;21925;44.608;11.580;2023-03-04T09:18:13;101903.72;;;12.63;100.00
35806;BME280;21925;44.608;11.580;2023-03-04T09:20:39;101883.63;;;12.33;100.00
35806;BME280;21925;44.608;11.580;2023-03-04T09:23:05;101883.91;;;12.40;100.00
35806;BME280;21925;44.608;11.580;2023-03-04T09:25:31;101900.50;;;12.81;100.00
35806;BME280;21925;44.608;11.580;2023-03-04T09:27:57;101881.25;;;12.52;100.00
35806;BME280;21925;44.608;11.580;2023-03-04T09:30:23;101890.41;;;13.14;100.00
35806;BME280;21925;44.608;11.580;2023-03-04T09:32:48;101876.78;;;13.50;100.00
35806;BME280;21925;44.608;11.580;2023-03-04T09:35:14;101861.38;;;13.69;100.00
35806;BME280;21925;44.608;11.580;2023-03-04T09:37:40;101864.19;;;13.60;100.00
35806;BME280;21925;44.608;11.580;2023-03-04T09:40:06;101850.47;;;13.72;100.00
35806;BME280;21925;44.608;11.580;2023-03-04T09:42:41;101877.84;;;13.57;100.00
35806;BME280;21925;44.608;11.580;2023-03-04T09:45:10;101856.22;;;13.79;98.05
35806;BME280;21925;44.608;11.580;2023-03-04T09:47:37;101868.22;;;14.67;94.19
35806;BME280;21925;44.608;11.580;2023-03-04T09:50:07;101870.56;;;14.29;89.96
35806;BME280;21925;44.608;11.580;2023-03-04T09:52:43;101873.53;;;14.48;89.21
35806;BME280;21925;44.608;11.580;2023-03-04T09:57:52;101875.03;;;14.34;91.72
35806;BME280;21925;44.608;11.580;2023-03-04T10:00:23;101865.94;;;15.08;84.54
35806;BME280;21925;44.608;11.580;2023-03-04T10:03:20;101872.13;;;15.56;77.55
35806;BME280;21925;44.608;11.580;2023-03-04T10:06:00;101867.78;;;15.43;76.01
35806;BME280;21925;44.608;11.580;2023-03-04T10:11:16;101858.00;;;16.35;72.64
35806;BME280;21925;44.608;11.580;2023-03-04T10:16:11;101853.31;;;15.77;73.96
35806;BME280;21925;44.608;11.580;2023-03-04T10:18:47;101847.44;;;15.94;72.47
35806;BME280;21925;44.608;11.580;2023-03-04T10:21:19;101849.78;;;16.23;71.54
35806;BME280;21925;44.608;11.580;2023-03-04T10:23:47;101857.47;;;16.45;71.24
35806;BME280;21925;44.608;11.580;2023-03-04T10:26:17;101857.22;;;16.34;69.57
35806;BME280;21925;44.608;11.580;2023-03-04T10:28:45;101785.63;;;15.71;70.25
35806;BME280;21925;44.608;11.580;2023-03-04T10:34:14;101849.88;;;16.42;67.63
35806;BME280;21925;44.608;11.580;2023-03-04T10:37:02;101840.72;;;16.91;65.02
35806;BME280;21925;44.608;11.580;2023-03-04T10:42:21;101835.59;;;16.74;66.59
35806;BME280;21925;44.608;11.580;2023-03-04T10:45:00;101829.09;;;16.67;68.15
35806;BME280;21925;44.608;11.580;2023-03-04T10:47:28;101819.44;;;16.26;70.74
35806;BME280;21925;44.608;11.580;2023-03-04T10:49:56;101822.72;;;16.32;69.21
35806;BME280;21925;44.608;11.580;2023-03-04T10:52:28;101808.63;;;16.71;66.21
35806;BME280;21925;44.608;11.580;2023-03-04T10:54:57;101817.41;;;16.58;68.94
35806;BME280;21925;44.608;11.580;2023-03-04T10:57:39;101793.94;;;16.52;70.65
35806;BME280;21925;44.608;11.580;2023-03-04T11:00:23;101809.09;;;16.92;69.49
35806;BME280;21925;44.608;11.580;2023-03-04T11:02:51;101777.66;;;16.31;70.02
35806;BME280;21925;44.608;11.580;2023-03-04T11:05:24;101791.78;;;16.61;69.98
35806;BME280;21925;44.608;11.580;2023-03-04T11:07:52;101794.41;;;16.73;66.32
35806;BME280;21925;44.608;11.580;2023-03-04T11:10:19;101780.72;;;16.98;66.95
35806;BME280;21925;44.608;11.580;2023-03-04T11:13:35;101778.63;;;16.92;67.38
35806;BME280;21925;44.608;11.580;2023-03-04T11:20:55;101763.41;;;17.43;60.52
35806;BME280;21925;44.608;11.580;2023-03-04T11:23:43;101771.53;;;17.77;60.76
35806;BME280;21925;44.608;11.580;2023-03-04T11:26:24;101747.50;;;17.62;58.64
35806;BME280;21925;44.608;11.580;2023-03-04T11:28:56;101760.19;;;18.08;59.37
35806;BME280;21925;44.608;11.580;2023-03-04T11:31:32;101746.41;;;18.15;55.28
35806;BME280;21925;44.608;11.580;2023-03-04T11:34:00;101755.31;;;18.24;60.53
35806;BME280;21925;44.608;11.580;2023-03-04T11:37:36;101728.28;;;18.21;59.91
35806;BME280;21925;44.608;11.580;2023-03-04T11:40:02;101757.94;;;18.42;58.71
35806;BME280;21925;44.608;11.580;2023-03-04T11:42:54;101746.19;;;18.52;58.95
35806;BME280;21925;44.608;11.580;2023-03-04T11:45:32;101742.47;;;18.71;57.93
35806;BME280;21925;44.608;11.580;2023-03-04T11:50:57;101742.84;;;18.69;58.21
35806;BME280;21925;44.608;11.580;2023-03-04T11:53:54;101728.31;;;18.79;56.05
35806;BME280;21925;44.608;11.580;2023-03-04T11:56:45;101726.59;;;18.42;58.29
35806;BME280;21925;44.608;11.580;2023-03-04T12:02:22;101721.81;;;18.13;58.38
35806;BME280;21925;44.608;11.580;2023-03-04T12:10:58;101696.03;;;18.71;55.04
35806;BME280;21925;44.608;11.580;2023-03-04T12:13:46;101694.09;;;19.48;54.07
35806;BME280;21925;44.608;11.580;2023-03-04T12:16:40;101696.34;;;18.99;53.44
35806;BME280;21925;44.608;11.580;2023-03-04T12:19:21;101682.63;;;19.10;54.24
35806;BME280;21925;44.608;11.580;2023-03-04T12:25:22;101688.06;;;19.86;53.54
35806;BME280;21925;44.608;11.580;2023-03-04T12:36:01;101668.34;;;20.11;52.91
35806;BME280;21925;44.608;11.580;2023-03-04T12:38:59;101661.03;;;19.90;53.80
35806;BME280;21925;44.608;11.580;2023-03-04T12:49:21;101646.56;;;19.67;53.54
35806;BME280;21925;44.608;11.580;2023-03-04T12:57:22;101619.03;;;20.08;56.41
35806;BME280;21925;44.608;11.580;2023-03-04T13:08:52;101624.81;;;20.57;53.98
35806;BME280;21925;44.608;11.580;2023-03-04T13:16:44;101618.19;;;21.00;52.53
35806;BME280;21925;44.608;11.580;2023-03-04T13:28:01;101586.31;;;19.92;54.57
35806;BME280;21925;44.608;11.580;2023-03-04T13:32:57;101585.75;;;19.15;52.02
35806;BME280;21925;44.608;11.580;2023-03-04T13:49:03;101579.47;;;19.79;52.14
35806;BME280;21925;44.608;11.580;2023-03-04T13:51:40;101571.44;;;19.10;55.65
35806;BME280;21925;44.608;11.580;2023-03-04T13:54:31;101548.94;;;18.85;54.92
35806;BME280;21925;44.608;11.580;2023-03-04T13:59:42;101567.47;;;19.68;53.60
35806;BME280;21925;44.608;11.580;2023-03-04T14:02:14;101571.66;;;19.95;53.10
35806;BME280;21925;44.608;11.580;2023-03-04T14:04:56;101536.59;;;19.26;53.37
35806;BME280;21925;44.608;11.580;2023-03-04T14:12:39;101553.84;;;19.49;55.25
35806;BME280;21925;44.608;11.580;2023-03-04T14:17:44;101545.88;;;18.97;53.21
35806;BME280;21925;44.608;11.580;2023-03-04T14:20:24;101556.75;;;18.73;54.46
35806;BME280;21925;44.608;11.580;2023-03-04T14:22:51;101552.28;;;18.65;53.44
35806;BME280;21925;44.608;11.580;2023-03-04T14:27:49;101542.75;;;18.62;53.37
35806;BME280;21925;44.608;11.580;2023-03-04T14:30:26;101538.94;;;19.24;52.05
35806;BME280;21925;44.608;11.580;2023-03-04T14:32:55;101537.53;;;19.47;51.99
35806;BME280;21925;44.608;11.580;2023-03-04T14:35:24;101518.97;;;19.65;53.75
35806;BME280;21925;44.608;11.580;2023-03-04T14:40:51;101521.34;;;19.67;52.44